Time;durP1;ratioP1;P1;durP2;ratioP2;P2;SDS_P1;SDS_P2;PMS_P1;PMS_P2;Temp;Humidity;BMP_temperature;BMP_pressure;BME280_temperature;BME280_humidity;BME280_pressure;Samples;Min_cycle;Max_cycle;Signal;HPM_P1;HPM_P2
2023/05/23 04:09:14;;;;;;;6.40;5.90;;;12.80;99.90;;;;;;5186974;23;20227;-69
2023/05/23 04:11:41;;;;;;;5.65;5.25;;;12.90;99.90;;;;;;4916440;29;20213;-69
2023/05/23 04:14:08;;;;;;;6.72;6.22;;;13.00;99.90;;;;;;4917071;29;20194;-70
2023/05/23 04:16:35;;;;;;;5.90;5.45;;;13.20;99.90;;;;;;4916846;29;20233;-70
2023/05/23 04:19:03;;;;;;;5.78;5.38;;;13.30;99.90;;;;;;4916529;29;20712;-69
2023/05/23 04:21:29;;;;;;;6.28;5.78;;;13.50;99.90;;;;;;4916922;29;20240;-69
2023/05/23 04:23:56;;;;;;;6.15;5.70;;;13.60;99.90;;;;;;4917776;29;20699;-73
2023/05/23 04:26:24;;;;;;;6.05;5.55;;;13.80;99.90;;;;;;4921030;29;20280;-73
2023/05/23 04:28:53;;;;;;;6.40;5.82;;;13.80;99.90;;;;;;4920804;29;20248;-73
2023/05/23 04:31:21;;;;;;;6.43;5.93;;;13.90;99.90;;;;;;4920164;29;20673;-75
2023/05/23 04:33:47;;;;;;;6.70;6.10;;;13.90;99.90;;;;;;4920339;29;20212;-75
2023/05/23 04:36:15;;;;;;;5.95;5.55;;;14.00;99.90;;;;;;4919953;29;20229;-74
2023/05/23 04:38:41;;;;;;;6.38;5.88;;;14.10;99.90;;;;;;4920351;29;20229;-76
2023/05/23 04:41:09;;;;;;;5.85;5.35;;;14.20;99.90;;;;;;4920010;29;20677;-73
2023/05/23 04:43:41;;;;;;;6.63;6.13;;;14.30;99.90;;;;;;4919996;29;20354;-73
2023/05/23 04:46:08;;;;;;;8.82;8.00;;;14.30;99.90;;;;;;4921489;29;20280;-75
2023/05/23 04:48:36;;;;;;;9.13;8.23;;;14.30;99.90;;;;;;4920202;29;20277;-73
2023/05/23 04:51:06;;;;;;;9.40;8.40;;;14.40;99.90;;;;;;4920525;29;20201;-73
2023/05/23 04:53:33;;;;;;;9.73;8.73;;;14.40;99.90;;;;;;4921013;29;20190;-73
2023/05/23 04:56:00;;;;;;;8.80;8.00;;;14.40;99.90;;;;;;4919770;29;20737;-73
2023/05/23 04:58:27;;;;;;;8.80;7.40;;;14.50;99.90;;;;;;4919817;29;20284;-73
2023/05/23 05:00:55;;;;;;;8.88;8.07;;;14.50;99.90;;;;;;4919612;29;20213;-73
2023/05/23 05:03:23;;;;;;;7.35;6.75;;;14.50;99.90;;;;;;4919227;29;20572;-73
2023/05/23 14:10:45;;;;;;;8.05;7.30;;;20.80;92.30;;;;;;4896624;29;20240;-71
2023/05/23 14:13:12;;;;;;;9.32;7.78;;;20.70;93.50;;;;;;4899132;29;20700;-71
2023/05/23 14:15:40;;;;;;;9.07;8.27;;;20.60;93.50;;;;;;4902933;29;20229;-70
2023/05/23 14:18:07;;;;;;;8.30;7.35;;;20.60;93.30;;;;;;4905163;29;20560;-70
2023/05/23 14:20:35;;;;;;;9.77;8.13;;;20.50;95.50;;;;;;4921997;29;20235;-70
2023/05/23 14:23:02;;;;;;;7.22;6.53;;;20.60;92.90;;;;;;4921849;29;20201;-70
2023/05/23 14:25:29;;;;;;;7.85;7.18;;;20.60;94.90;;;;;;4921586;29;20212;-71
2023/05/23 14:27:57;;;;;;;7.85;7.15;;;20.60;93.70;;;;;;4922985;29;20213;-71
2023/05/23 14:30:25;;;;;;;8.52;7.72;;;20.60;93.30;;;;;;4922873;29;20232;-70
2023/05/23 14:32:53;;;;;;;7.32;6.63;;;20.50;94.90;;;;;;4923128;29;20292;-70
2023/05/23 14:35:21;;;;;;;7.93;7.22;;;20.40;94.90;;;;;;4922187;29;20212;-70
2023/05/23 14:37:48;;;;;;;6.85;6.20;;;20.40;93.40;;;;;;4922498;29;20263;-70
2023/05/23 14:40:16;;;;;;;8.23;6.63;;;20.30;94.60;;;;;;4918424;29;20757;-70
2023/05/23 14:42:43;;;;;;;6.93;6.30;;;20.20;94.40;;;;;;4922530;29;20239;-70
2023/05/23 14:45:12;;;;;;;6.70;6.10;;;20.20;95.90;;;;;;4922526;29;20222;-71
2023/05/23 14:47:39;;;;;;;6.18;5.32;;;20.20;95.40;;;;;;4918579;29;20348;-69
2023/05/23 14:50:07;;;;;;;7.65;6.97;;;20.30;96.20;;;;;;4918833;29;20699;-70
2023/05/23 14:52:33;;;;;;;6.88;6.13;;;20.40;95.90;;;;;;4918059;29;20204;-71
2023/05/23 14:55:00;;;;;;;8.05;7.25;;;20.40;97.50;;;;;;4940901;23;20232;-72
2023/05/23 14:57:27;;;;;;;6.53;5.93;;;20.50;94.60;;;;;;4920783;29;20225;-72
2023/05/23 14:59:54;;;;;;;7.88;7.05;;;20.50;94.30;;;;;;4917569;29;20205;-73
2023/05/23 15:02:22;;;;;;;7.40;6.70;;;20.40;94.20;;;;;;4917348;29;20205;-72
2023/05/23 15:04:49;;;;;;;6.90;6.30;;;20.30;94.70;;;;;;4921527;29;20225;-72
2023/05/23 15:07:17;;;;;;;7.75;7.03;;;20.10;95.40;;;;;;4918530;29;20308;-72
2023/05/23 15:09:44;;;;;;;7.53;6.70;;;20.00;96.10;;;;;;4921047;29;20287;-71
2023/05/23 15:12:12;;;;;;;6.15;5.65;;;19.90;96.40;;;;;;4920205;29;20212;-72
2023/05/23 15:14:39;;;;;;;7.13;6.45;;;19.90;97.50;;;;;;4916785;29;20569;-72
2023/05/23 15:17:07;;;;;;;6.63;6.03;;;19.90;98.60;;;;;;4917957;29;20583;-72
2023/05/23 15:19:36;;;;;;;7.72;6.88;;;19.90;99.90;;;;;;4917898;29;20205;-73
2023/05/23 15:22:04;;;;;;;6.28;5.68;;;20.00;98.60;;;;;;4921008;29;20299;-71
2023/05/23 15:24:31;;;;;;;6.03;5.50;;;20.10;99.70;;;;;;4921226;29;20221;-72
2023/05/23 15:26:59;;;;;;;9.60;6.05;;;20.30;98.90;;;;;;4922348;29;20213;-72
2023/05/23 15:29:26;;;;;;;7.05;6.10;;;20.50;95.60;;;;;;4921748;29;20209;-72
2023/05/23 15:31:53;;;;;;;7.53;6.57;;;20.50;93.80;;;;;;4920897;29;20209;-72
2023/05/23 15:34:20;;;;;;;6.85;6.22;;;20.50;92.60;;;;;;4921087;29;20323;-72
2023/05/23 15:36:50;;;;;;;9.23;6.28;;;20.60;94.10;;;;;;4919409;29;20231;-72
2023/05/23 15:39:16;;;;;;;6.35;5.60;;;20.60;95.40;;;;;;4916925;29;20204;-72
2023/05/23 15:41:43;;;;;;;5.80;5.30;;;20.50;94.20;;;;;;4917223;29;20204;-73
2023/05/23 15:44:10;;;;;;;8.10;5.25;;;20.60;93.30;;;;;;4917067;29;20225;-73
2023/05/23 15:46:37;;;;;;;6.07;5.57;;;20.50;92.80;;;;;;4916853;29;20207;-73
2023/05/23 15:49:03;;;;;;;5.95;5.45;;;20.40;91.60;;;;;;4916856;29;20205;-73
2023/05/23 15:51:31;;;;;;;5.70;5.20;;;20.30;92.90;;;;;;4916660;29;20684;-73
2023/05/23 15:53:59;;;;;;;5.20;4.80;;;20.20;93.20;;;;;;4916493;29;20229;-73
2023/05/23 15:56:26;;;;;;;8.70;6.07;;;20.10;93.70;;;;;;4916877;29;20232;-73
2023/05/23 15:58:53;;;;;;;7.05;5.47;;;20.10;93.20;;;;;;4916630;29;20700;-73
2023/05/23 16:01:19;;;;;;;6.18;4.90;;;19.90;93.90;;;;;;4917036;29;20216;-73
2023/05/23 16:03:46;;;;;;;6.90;5.07;;;19.80;95.20;;;;;;4916936;29;20232;-73
2023/05/23 16:06:13;;;;;;;4.78;4.47;;;19.80;95.50;;;;;;4916752;29;20209;-73
2023/05/23 16:08:40;;;;;;;4.95;4.45;;;19.80;94.70;;;;;;4916951;29;20208;-73
2023/05/23 16:11:08;;;;;;;5.45;4.97;;;19.80;94.30;;;;;;4916647;29;20669;-73
2023/05/23 16:13:35;;;;;;;5.05;4.72;;;19.80;94.30;;;;;;4916799;29;20228;-73
2023/05/23 16:16:02;;;;;;;4.50;4.20;;;19.80;94.60;;;;;;4916693;29;20232;-73
2023/05/23 16:18:29;;;;;;;4.60;4.30;;;19.70;96.10;;;;;;4916852;29;20205;-73
2023/05/23 16:20:56;;;;;;;4.43;4.03;;;19.60;94.40;;;;;;4920343;29;20228;-73
2023/05/23 16:23:23;;;;;;;4.70;4.30;;;19.50;94.10;;;;;;4921051;29;20224;-73
2023/05/23 16:25:49;;;;;;;4.50;4.10;;;19.50;96.20;;;;;;4920374;29;20217;-73
2023/05/23 16:28:18;;;;;;;4.40;4.10;;;19.50;92.50;;;;;;4920068;29;20748;-73
2023/05/23 16:30:44;;;;;;;4.78;4.45;;;19.30;94.20;;;;;;4919837;29;20568;-73
2023/05/23 16:33:11;;;;;;;6.22;4.00;;;19.20;94.90;;;;;;4919980;29;20204;-74
2023/05/23 16:35:38;;;;;;;4.82;4.47;;;19.00;94.90;;;;;;4920036;29;20201;-73
2023/05/23 16:38:05;;;;;;;4.60;4.20;;;18.90;94.50;;;;;;4919785;29;20284;-74
2023/05/23 16:40:31;;;;;;;4.20;3.78;;;18.70;97.20;;;;;;4919962;29;20211;-73
2023/05/23 16:42:58;;;;;;;3.30;3.20;;;18.60;98.40;;;;;;4919823;29;20212;-73
2023/05/23 16:45:26;;;;;;;3.95;3.67;;;18.60;98.90;;;;;;4919801;29;20205;-73
2023/05/23 16:47:53;;;;;;;3.58;3.38;;;18.60;99.90;;;;;;4919764;29;20201;-73
2023/05/23 16:50:19;;;;;;;4.50;3.65;;;18.50;99.90;;;;;;4920036;29;20201;-73
2023/05/23 16:52:46;;;;;;;3.63;3.35;;;18.50;99.90;;;;;;4919283;29;20205;-74
2023/05/23 16:55:13;;;;;;;3.40;3.20;;;18.50;99.60;;;;;;4919469;29;20746;-71
2023/05/23 16:57:39;;;;;;;4.15;3.70;;;18.50;99.90;;;;;;4919449;29;20229;-71
2023/05/23 17:00:08;;;;;;;3.58;3.30;;;18.50;99.90;;;;;;4919535;29;20201;-72
2023/05/23 17:02:36;;;;;;;3.33;3.22;;;18.50;99.90;;;;;;4919440;29;20209;-73
2023/05/23 17:05:02;;;;;;;3.47;3.17;;;18.50;99.90;;;;;;4919208;29;20240;-73
2023/05/23 17:07:30;;;;;;;3.40;3.20;;;18.50;99.90;;;;;;4919049;29;20583;-73
2023/05/23 17:09:56;;;;;;;3.88;3.55;;;18.40;99.90;;;;;;4919301;29;20236;-73
2023/05/23 17:12:23;;;;;;;3.53;3.33;;;18.30;99.90;;;;;;4919244;29;20209;-73
2023/05/23 17:14:50;;;;;;;3.53;3.33;;;18.00;99.90;;;;;;4919192;29;20239;-73
2023/05/23 17:17:17;;;;;;;3.65;3.45;;;18.00;99.90;;;;;;4919476;29;20236;-73
2023/05/23 17:19:45;;;;;;;3.40;3.20;;;17.90;99.90;;;;;;4919066;29;20288;-73
2023/05/23 17:22:12;;;;;;;2.88;2.78;;;17.80;99.90;;;;;;4918640;29;20205;-73
2023/05/23 17:24:38;;;;;;;3.13;3.03;;;17.70;99.90;;;;;;4918616;29;20637;-73
2023/05/23 17:27:05;;;;;;;2.80;2.70;;;17.60;99.90;;;;;;4918581;29;20568;-74
2023/05/23 17:29:32;;;;;;;3.80;3.58;;;17.60;99.90;;;;;;4919300;29;20221;-74
2023/05/23 17:31:59;;;;;;;4.00;3.08;;;17.60;99.90;;;;;;4918474;29;20209;-73
2023/05/23 17:34:25;;;;;;;3.67;3.28;;;17.60;99.90;;;;;;4918780;29;20228;-73
2023/05/23 17:36:53;;;;;;;3.65;3.40;;;17.50;99.90;;;;;;4918967;29;20228;-73
2023/05/23 17:39:20;;;;;;;3.05;2.90;;;17.40;99.90;;;;;;4918840;29;20205;-74
2023/05/23 17:41:47;;;;;;;3.08;2.72;;;17.30;99.90;;;;;;4918466;29;20707;-72
2023/05/23 17:44:13;;;;;;;3.67;3.30;;;17.10;99.90;;;;;;4918262;29;20229;-73
2023/05/23 17:46:40;;;;;;;3.55;3.35;;;17.10;99.90;;;;;;4918581;29;20220;-73
2023/05/23 17:49:07;;;;;;;2.97;2.88;;;16.90;99.90;;;;;;4918765;29;20236;-74
2023/05/23 17:51:33;;;;;;;3.13;2.90;;;16.90;99.90;;;;;;4918675;29;20205;-73
2023/05/23 17:54:03;;;;;;;3.38;3.17;;;16.90;99.90;;;;;;4918419;29;20589;-74
2023/05/23 17:56:30;;;;;;;2.80;2.70;;;16.80;99.90;;;;;;4918285;29;20201;-73
2023/05/23 17:58:56;;;;;;;3.50;3.20;;;16.70;99.90;;;;;;4918771;29;20198;-74
2023/05/23 18:01:24;;;;;;;3.35;3.10;;;16.70;99.90;;;;;;4918630;29;20201;-73
2023/05/23 18:03:52;;;;;;;3.95;3.20;;;16.60;99.90;;;;;;4918629;29;20228;-74
2023/05/23 18:06:19;;;;;;;3.20;3.10;;;16.60;99.90;;;;;;4918105;29;20684;-73
2023/05/23 18:08:45;;;;;;;3.40;3.10;;;16.40;99.90;;;;;;4918265;29;20205;-73
2023/05/23 18:11:13;;;;;;;3.17;2.75;;;16.40;99.90;;;;;;4918265;29;20216;-73
2023/05/23 18:13:40;;;;;;;4.18;2.85;;;16.30;99.90;;;;;;4917897;29;20225;-70
2023/05/23 18:16:07;;;;;;;3.05;2.58;;;16.30;99.90;;;;;;4918251;29;20206;-73
2023/05/23 18:18:34;;;;;;;3.45;2.88;;;16.20;99.90;;;;;;4918184;29;20221;-71
2023/05/23 18:21:00;;;;;;;3.75;3.50;;;16.20;99.90;;;;;;4918144;29;20225;-72
2023/05/23 18:23:27;;;;;;;2.78;2.67;;;16.10;99.90;;;;;;4918176;29;20229;-72
2023/05/23 18:25:54;;;;;;;2.75;2.65;;;16.10;99.90;;;;;;4918140;29;20210;-72
2023/05/23 18:28:22;;;;;;;2.85;2.75;;;16.10;99.90;;;;;;4918387;29;20237;-72
2023/05/23 18:30:48;;;;;;;4.15;2.80;;;16.10;99.90;;;;;;4918178;29;20284;-71
2023/05/23 18:33:15;;;;;;;3.05;2.90;;;16.00;99.90;;;;;;4918549;29;20209;-72
2023/05/23 18:35:42;;;;;;;3.22;2.92;;;16.00;99.90;;;;;;4919219;29;20220;-71
2023/05/23 18:38:09;;;;;;;3.63;3.42;;;15.90;99.90;;;;;;4922942;29;20233;-71
2023/05/23 18:40:36;;;;;;;3.13;2.80;;;15.80;99.90;;;;;;4924332;29;20201;-71
2023/05/23 18:43:03;;;;;;;2.30;2.20;;;15.70;99.90;;;;;;4922432;29;20197;-72
2023/05/23 18:45:31;;;;;;;3.00;2.85;;;15.60;99.90;;;;;;4917785;29;20211;-71
2023/05/23 18:47:58;;;;;;;2.78;2.67;;;15.60;99.90;;;;;;4917640;29;20572;-73
2023/05/23 18:50:24;;;;;;;2.95;2.85;;;15.50;99.90;;;;;;4917726;29;20218;-73
2023/05/23 18:52:51;;;;;;;3.25;3.08;;;15.40;99.90;;;;;;4917327;29;20673;-71
2023/05/23 18:55:19;;;;;;;4.88;3.60;;;15.30;99.90;;;;;;4917409;29;20240;-71
2023/05/23 18:57:45;;;;;;;3.88;3.03;;;15.30;99.90;;;;;;4918467;29;20225;-71
2023/05/23 19:00:13;;;;;;;3.25;3.05;;;15.20;99.90;;;;;;4917537;29;20217;-73
2023/05/23 19:02:43;;;;;;;3.25;3.05;;;15.20;99.90;;;;;;4917533;29;20210;-73
2023/05/23 19:05:11;;;;;;;3.75;2.50;;;15.10;99.90;;;;;;4917642;29;20225;-76
2023/05/23 19:07:37;;;;;;;3.13;3.03;;;15.00;99.90;;;;;;4917698;29;20201;-75
2023/05/23 19:10:05;;;;;;;3.50;3.30;;;15.00;99.90;;;;;;4917721;29;20232;-74
2023/05/23 19:12:32;;;;;;;3.08;2.97;;;14.90;99.90;;;;;;4917098;29;20209;-73
2023/05/23 19:14:59;;;;;;;3.30;3.10;;;14.80;99.90;;;;;;4916949;29;20713;-75
2023/05/23 19:17:25;;;;;;;3.38;3.17;;;14.80;99.90;;;;;;4916915;29;20221;-74
2023/05/23 19:19:54;;;;;;;3.78;3.58;;;14.70;99.90;;;;;;4917262;29;20617;-74
2023/05/23 19:22:21;;;;;;;3.63;3.35;;;14.70;99.90;;;;;;4917464;29;20209;-74
2023/05/23 19:24:48;;;;;;;3.58;3.38;;;14.60;99.90;;;;;;4917235;29;20227;-74
2023/05/23 19:27:15;;;;;;;3.55;3.28;;;14.60;99.90;;;;;;4916934;29;20681;-71
2023/05/23 19:29:43;;;;;;;3.63;3.42;;;14.50;99.90;;;;;;4917220;29;20308;-71
2023/05/23 19:32:09;;;;;;;4.10;3.78;;;14.40;99.90;;;;;;4918381;29;20260;-71
2023/05/23 19:34:36;;;;;;;5.20;4.25;;;14.40;99.90;;;;;;4917124;29;20228;-70
2023/05/23 19:37:05;;;;;;;3.80;3.50;;;14.30;99.90;;;;;;4917097;29;20206;-71
2023/05/23 19:39:31;;;;;;;3.20;3.00;;;14.30;99.90;;;;;;4917036;29;20685;-71
2023/05/23 19:41:58;;;;;;;3.75;3.55;;;14.20;99.90;;;;;;4916765;29;20565;-71
2023/05/23 19:44:25;;;;;;;3.97;3.78;;;14.10;99.90;;;;;;4916969;29;20233;-71
2023/05/23 19:46:51;;;;;;;3.88;3.60;;;14.10;99.90;;;;;;4916699;29;20712;-73
2023/05/23 19:49:19;;;;;;;5.65;5.15;;;14.00;99.90;;;;;;4916738;29;20232;-73
2023/05/23 19:51:46;;;;;;;4.70;4.40;;;14.10;99.90;;;;;;4917451;29;20201;-73
2023/05/23 19:54:14;;;;;;;5.72;5.18;;;14.00;99.90;;;;;;4918118;29;20233;-73
2023/05/23 19:56:41;;;;;;;6.13;5.55;;;13.90;99.90;;;;;;4920482;29;20673;-74
2023/05/23 19:59:07;;;;;;;5.13;4.72;;;13.90;99.90;;;;;;4920721;29;20225;-73
2023/05/23 20:01:34;;;;;;;4.53;4.22;;;13.80;99.90;;;;;;4920717;29;20205;-73
2023/05/23 20:04:01;;;;;;;5.28;4.80;;;13.80;99.90;;;;;;4920560;29;20229;-74
2023/05/23 20:06:27;;;;;;;5.43;5.03;;;13.70;99.90;;;;;;4920616;29;20216;-74
2023/05/23 20:08:54;;;;;;;6.38;5.88;;;13.70;99.90;;;;;;4920550;29;20221;-73
2023/05/23 20:11:23;;;;;;;5.50;5.03;;;13.60;99.90;;;;;;4920499;29;20202;-74
2023/05/23 20:13:49;;;;;;;5.03;4.60;;;13.60;99.90;;;;;;4920414;29;20247;-75
2023/05/23 20:16:16;;;;;;;6.45;5.22;;;13.50;99.90;;;;;;4920498;29;20209;-72
2023/05/23 20:18:43;;;;;;;6.43;5.82;;;13.50;99.90;;;;;;4920472;29;20221;-74
2023/05/23 20:21:10;;;;;;;6.38;5.75;;;13.50;99.90;;;;;;4920399;29;20260;-75
2023/05/23 20:23:37;;;;;;;7.57;6.28;;;13.40;99.90;;;;;;4920019;29;20225;-75
2023/05/23 20:26:03;;;;;;;6.45;5.55;;;13.40;99.90;;;;;;4919927;29;20693;-71
2023/05/23 20:28:32;;;;;;;6.32;5.82;;;13.30;99.90;;;;;;4920251;29;20197;-70
2023/05/23 20:30:58;;;;;;;6.72;6.10;;;13.30;99.90;;;;;;4920250;29;20235;-70
2023/05/23 20:33:25;;;;;;;6.18;5.68;;;13.30;99.90;;;;;;4919889;29;20225;-70
2023/05/23 20:35:52;;;;;;;7.68;6.72;;;13.30;99.90;;;;;;4920059;29;20209;-70
2023/05/23 20:38:19;;;;;;;6.53;5.93;;;13.30;99.90;;;;;;4920007;29;20222;-70
2023/05/23 20:40:47;;;;;;;5.57;5.18;;;13.20;99.90;;;;;;4919930;29;20209;-70
2023/05/23 20:43:14;;;;;;;6.05;5.53;;;13.20;99.90;;;;;;4919838;29;20209;-69
2023/05/23 20:45:42;;;;;;;6.13;5.63;;;13.10;99.90;;;;;;4919743;29;20343;-69
2023/05/23 20:48:09;;;;;;;6.13;5.63;;;13.10;99.90;;;;;;4919756;29;20201;-69
2023/05/23 20:50:37;;;;;;;6.18;5.53;;;13.00;99.90;;;;;;4919726;29;20240;-69
2023/05/23 20:53:05;;;;;;;7.28;6.63;;;13.00;99.90;;;;;;4919486;29;20252;-69
2023/05/23 20:55:33;;;;;;;7.75;6.32;;;13.00;99.90;;;;;;4919264;29;20733;-69
2023/05/23 20:58:00;;;;;;;8.85;7.43;;;12.90;99.90;;;;;;4919561;29;20225;-70
2023/05/23 21:00:27;;;;;;;7.65;6.95;;;12.90;99.90;;;;;;4919529;29;20209;-70
2023/05/23 21:02:55;;;;;;;8.85;7.18;;;12.90;99.90;;;;;;4919540;29;20201;-70
2023/05/23 21:05:22;;;;;;;10.02;8.00;;;12.80;99.90;;;;;;4919201;29;20237;-70
2023/05/23 21:07:48;;;;;;;7.47;6.82;;;12.90;99.90;;;;;;4919087;29;20201;-70
2023/05/23 21:10:15;;;;;;;6.60;6.00;;;12.80;99.90;;;;;;4919330;29;20201;-70
2023/05/23 21:12:48;;;;;;;7.25;6.50;;;12.70;99.90;;;;;;4919376;29;20205;-70
2023/05/23 21:15:14;;;;;;;8.10;7.35;;;12.70;99.90;;;;;;4919216;29;20284;-69
2023/05/23 21:17:41;;;;;;;8.30;7.32;;;12.70;99.90;;;;;;4918859;29;20209;-69
2023/05/23 21:20:10;;;;;;;7.72;6.82;;;12.70;99.90;;;;;;4919127;29;20257;-69
2023/05/23 21:22:37;;;;;;;8.30;7.10;;;12.60;99.90;;;;;;4919146;29;20205;-71
2023/05/23 21:25:04;;;;;;;11.10;6.93;;;12.60;99.90;;;;;;4918676;29;20731;-71
2023/05/23 21:27:31;;;;;;;6.88;6.28;;;12.50;99.90;;;;;;4919036;29;20212;-71
2023/05/23 21:29:58;;;;;;;5.57;5.05;;;12.50;99.90;;;;;;4918982;29;20201;-71
2023/05/23 21:32:24;;;;;;;5.82;5.32;;;12.40;99.90;;;;;;4918949;29;20209;-71
2023/05/23 21:34:51;;;;;;;5.03;4.63;;;12.40;99.90;;;;;;4918831;29;20320;-71
2023/05/23 21:37:19;;;;;;;4.50;4.20;;;12.30;99.90;;;;;;4918746;29;20210;-71
2023/05/23 21:39:46;;;;;;;5.50;5.10;;;12.30;99.90;;;;;;4918455;29;20739;-71
2023/05/23 21:42:13;;;;;;;4.93;4.53;;;12.20;99.90;;;;;;4919479;29;20213;-71
2023/05/23 21:44:39;;;;;;;4.00;3.70;;;12.10;99.90;;;;;;4940805;23;20240;-70
2023/05/23 21:47:06;;;;;;;4.00;3.80;;;12.10;99.90;;;;;;4918537;29;20533;-70
2023/05/23 21:49:34;;;;;;;4.88;4.35;;;12.00;99.90;;;;;;4918701;29;20213;-70
2023/05/23 21:52:01;;;;;;;5.18;4.75;;;11.90;99.90;;;;;;4918697;29;20202;-70
2023/05/23 21:54:29;;;;;;;4.47;4.18;;;11.80;99.90;;;;;;4918457;29;20229;-70
2023/05/23 21:56:58;;;;;;;5.57;3.97;;;11.70;99.90;;;;;;4918686;29;20201;-71
2023/05/23 21:59:25;;;;;;;4.15;3.75;;;11.60;99.90;;;;;;4918332;29;20709;-71
2023/05/23 22:01:52;;;;;;;3.50;3.40;;;11.60;99.90;;;;;;4918591;29;20209;-71
2023/05/23 22:04:19;;;;;;;3.85;3.65;;;11.50;99.90;;;;;;4918381;29;20229;-71
2023/05/23 22:06:46;;;;;;;3.58;3.33;;;11.50;99.90;;;;;;4918422;29;20201;-72
2023/05/23 22:09:13;;;;;;;3.63;3.42;;;11.40;99.90;;;;;;4918442;29;20272;-72
2023/05/23 22:11:42;;;;;;;3.83;3.63;;;11.40;99.90;;;;;;4918329;29;20292;-71
2023/05/23 22:14:08;;;;;;;4.45;4.15;;;11.30;99.90;;;;;;4918278;29;20229;-71
